createdAt,value
2019-06-01T00:01:23.746Z,18.70
2019-06-01T00:03:51.441Z,18.70
2019-06-01T00:06:19.247Z,18.70
2019-06-01T00:08:47.236Z,18.70
2019-06-01T00:11:15.084Z,18.60
2019-06-01T00:13:43.453Z,18.50
2019-06-01T00:16:11.262Z,18.50
2019-06-01T00:18:39.819Z,18.50
2019-06-01T00:21:07.698Z,18.40
2019-06-01T00:23:35.473Z,18.40
2019-06-01T00:26:03.258Z,18.40
2019-06-01T00:28:30.936Z,18.40
2019-06-01T00:30:58.810Z,18.40
2019-06-01T00:33:26.530Z,18.30
2019-06-01T00:35:54.389Z,18.30
2019-06-01T00:38:22.081Z,18.30
2019-06-01T00:40:49.967Z,18.20
2019-06-01T00:43:18.033Z,18.20
2019-06-01T00:45:46.518Z,18.10
2019-06-01T00:48:14.396Z,18.10
2019-06-01T00:50:43.076Z,18.10
2019-06-01T00:53:10.959Z,18.10
2019-06-01T00:55:38.905Z,18.00
2019-06-01T00:58:06.714Z,18.00
2019-06-01T01:00:43.266Z,17.90
2019-06-01T01:03:04.206Z,17.80
2019-06-01T01:05:32.115Z,17.90
2019-06-01T01:07:59.965Z,17.90
2019-06-01T01:10:27.806Z,17.90
2019-06-01T01:13:23.792Z,17.90
2019-06-01T01:15:53.483Z,17.90
2019-06-01T01:18:21.247Z,17.80
2019-06-01T01:20:50.051Z,17.80
2019-06-01T01:23:17.887Z,17.80
2019-06-01T01:25:46.356Z,17.70
2019-06-01T01:28:14.247Z,17.70
2019-06-01T01:30:41.936Z,17.70
2019-06-01T01:33:10.337Z,17.70
2019-06-01T01:35:38.082Z,17.60
2019-06-01T01:38:05.830Z,17.60
2019-06-01T01:40:33.489Z,17.60
2019-06-01T01:43:01.274Z,17.60
2019-06-01T01:45:28.941Z,17.60
2019-06-01T01:47:57.237Z,17.60
2019-06-01T01:50:27.008Z,17.60
2019-06-01T01:52:54.896Z,17.60
2019-06-01T01:55:22.825Z,17.60
2019-06-01T01:57:51.193Z,17.60
2019-06-01T02:00:40.199Z,17.50
2019-06-01T02:03:10.334Z,17.50
2019-06-01T02:05:38.321Z,17.40
2019-06-01T02:08:07.484Z,17.50
2019-06-01T02:10:35.797Z,17.40
2019-06-01T02:13:04.858Z,17.50
2019-06-01T02:15:32.725Z,17.40
2019-06-01T02:18:02.729Z,17.40
2019-06-01T02:20:31.587Z,17.40
2019-06-01T02:23:00.997Z,17.30
2019-06-01T02:25:30.386Z,17.30
2019-06-01T02:27:59.248Z,17.20
2019-06-01T02:30:27.087Z,17.10
2019-06-01T02:32:56.255Z,17.10
2019-06-01T02:35:24.586Z,17.00
2019-06-01T02:37:52.346Z,17.10
2019-06-01T02:40:20.596Z,17.10
2019-06-01T02:42:48.825Z,17.00
2019-06-01T02:45:17.548Z,17.00
2019-06-01T02:47:46.259Z,17.00
2019-06-01T02:50:14.338Z,16.90
2019-06-01T02:52:42.418Z,16.90
2019-06-01T02:55:15.198Z,17.00
2019-06-01T02:57:43.770Z,17.00
2019-06-01T03:00:12.118Z,17.00
2019-06-01T03:02:41.819Z,17.00
2019-06-01T03:05:10.508Z,16.90
2019-06-01T03:07:41.010Z,16.90
2019-06-01T03:10:11.164Z,16.80
2019-06-01T03:12:43.565Z,16.80
2019-06-01T03:15:12.741Z,16.80
2019-06-01T03:17:47.911Z,16.80
2019-06-01T03:20:17.406Z,16.80
2019-06-01T03:22:50.864Z,16.80
2019-06-01T03:25:20.206Z,16.80
2019-06-01T03:27:51.126Z,16.80
2019-06-01T03:30:37.297Z,16.80
2019-06-01T03:33:08.611Z,16.80
2019-06-01T03:35:36.458Z,16.70
2019-06-01T03:38:04.963Z,16.70
2019-06-01T03:40:33.060Z,16.70
2019-06-01T03:43:00.726Z,16.70
2019-06-01T03:45:28.881Z,16.70
2019-06-01T03:47:56.563Z,16.80
2019-06-01T03:50:24.309Z,16.80
2019-06-01T03:52:52.442Z,16.80
2019-06-01T03:55:20.210Z,16.70
2019-06-01T03:57:48.014Z,16.70
2019-06-01T04:00:15.778Z,16.70
2019-06-01T04:02:43.755Z,16.70
2019-06-01T04:05:11.661Z,16.70
2019-06-01T04:07:39.445Z,16.70
2019-06-01T04:10:07.935Z,16.70
2019-06-01T04:12:36.078Z,16.70
2019-06-01T04:15:10.112Z,16.70
2019-06-01T04:17:34.498Z,16.70
2019-06-01T04:20:02.186Z,16.70
2019-06-01T04:23:12.397Z,16.80
2019-06-01T04:25:40.261Z,16.80
2019-06-01T04:28:12.625Z,16.80
2019-06-01T04:30:40.866Z,16.80
2019-06-01T04:33:08.986Z,16.80
2019-06-01T04:35:36.789Z,16.90
2019-06-01T04:38:05.064Z,16.90
2019-06-01T04:40:33.138Z,16.90
2019-06-01T04:43:00.803Z,16.90
2019-06-01T04:45:28.461Z,17.00
2019-06-01T04:47:56.207Z,17.00
2019-06-01T04:50:24.002Z,17.00
2019-06-01T04:52:51.781Z,16.90
2019-06-01T04:55:19.454Z,16.90
2019-06-01T04:57:47.306Z,16.90
2019-06-01T05:00:25.771Z,16.90
2019-06-01T05:02:45.374Z,16.90
2019-06-01T05:05:13.391Z,16.80
2019-06-01T05:07:41.321Z,16.90
2019-06-01T05:10:09.551Z,16.90
2019-06-01T05:12:37.772Z,16.90
2019-06-01T05:15:07.771Z,16.90
2019-06-01T05:17:36.501Z,16.90
2019-06-01T05:20:06.182Z,16.90
2019-06-01T05:22:34.635Z,16.90
2019-06-01T05:25:02.398Z,16.80
2019-06-01T05:27:31.854Z,16.90
2019-06-01T05:29:59.519Z,16.90
2019-06-01T05:32:27.226Z,17.00
2019-06-01T05:34:55.006Z,17.10
2019-06-01T05:37:22.603Z,17.10
2019-06-01T05:39:50.341Z,17.10
2019-06-01T05:42:19.021Z,17.20
2019-06-01T05:44:46.794Z,17.30
2019-06-01T05:47:14.499Z,17.40
2019-06-01T05:49:42.253Z,17.50
2019-06-01T05:52:10.385Z,17.60
2019-06-01T05:54:38.220Z,17.60
2019-06-01T05:57:06.026Z,17.60
2019-06-01T05:59:33.799Z,17.60
2019-06-01T06:02:01.377Z,17.60
2019-06-01T06:04:29.275Z,17.70
2019-06-01T06:06:56.959Z,17.70
2019-06-01T06:09:24.680Z,17.80
2019-06-01T06:11:54.056Z,17.80
2019-06-01T06:14:22.651Z,17.90
2019-06-01T06:16:50.366Z,18.00
2019-06-01T06:19:21.110Z,18.10
2019-06-01T06:21:47.599Z,18.10
2019-06-01T06:24:16.409Z,18.20
2019-06-01T06:26:44.465Z,18.30
2019-06-01T06:29:12.763Z,18.40
2019-06-01T06:31:40.601Z,18.40
2019-06-01T06:34:08.358Z,18.50
2019-06-01T06:36:36.122Z,18.60
2019-06-01T06:39:06.803Z,18.70
2019-06-01T06:41:34.798Z,18.80
2019-06-01T06:44:02.482Z,18.90
2019-06-01T06:46:30.366Z,19.00
2019-06-01T06:48:58.071Z,19.00
2019-06-01T06:51:25.814Z,19.10
2019-06-01T06:53:53.497Z,19.20
2019-06-01T06:56:22.024Z,19.30
2019-06-01T06:58:50.037Z,19.40
2019-06-01T07:01:18.706Z,19.50
2019-06-01T07:03:46.480Z,19.60
2019-06-01T07:06:14.226Z,19.80
2019-06-01T07:08:41.927Z,19.90
2019-06-01T07:11:11.866Z,20.00
2019-06-01T07:13:39.457Z,20.10
2019-06-01T07:16:07.324Z,20.20
2019-06-01T07:18:35.109Z,20.30
2019-06-01T07:21:02.881Z,20.40
2019-06-01T07:23:30.571Z,20.40
2019-06-01T07:25:58.482Z,20.50
2019-06-01T07:28:26.362Z,20.60
2019-06-01T07:30:54.200Z,20.70
2019-06-01T07:33:22.392Z,20.80
2019-06-01T07:35:50.350Z,20.80
2019-06-01T07:38:18.128Z,20.90
2019-06-01T07:40:45.825Z,21.00
2019-06-01T07:43:13.551Z,21.10
2019-06-01T07:45:41.286Z,21.20
2019-06-01T07:48:08.948Z,21.40
2019-06-01T07:50:36.646Z,21.40
2019-06-01T07:53:04.401Z,21.50
2019-06-01T07:55:31.986Z,21.50
2019-06-01T07:58:00.621Z,21.50
2019-06-01T08:00:29.030Z,21.60
2019-06-01T08:02:57.090Z,21.60
2019-06-01T08:05:25.373Z,21.70
2019-06-01T08:07:54.374Z,21.80
2019-06-01T08:10:23.068Z,21.90
2019-06-01T08:12:51.969Z,22.00
2019-06-01T08:15:19.781Z,22.10
2019-06-01T08:17:47.637Z,22.30
2019-06-01T08:20:15.346Z,22.30
2019-06-01T08:22:43.199Z,22.40
2019-06-01T08:25:11.223Z,22.40
2019-06-01T08:27:39.191Z,22.50
2019-06-01T08:30:07.083Z,22.60
2019-06-01T08:32:35.386Z,22.70
2019-06-01T08:35:09.203Z,22.80
2019-06-01T08:37:33.678Z,22.80
2019-06-01T08:40:01.504Z,22.90
2019-06-01T08:42:31.614Z,22.90
2019-06-01T08:44:59.747Z,23.00
2019-06-01T08:47:27.784Z,22.90
2019-06-01T08:49:55.881Z,22.90
2019-06-01T08:52:23.908Z,23.00
2019-06-01T08:54:51.896Z,23.10
2019-06-01T08:57:19.885Z,23.10
2019-06-01T08:59:47.775Z,23.20
2019-06-01T09:02:15.552Z,23.20
2019-06-01T09:04:43.305Z,23.10
2019-06-01T09:07:11.007Z,23.30
2019-06-01T09:09:38.793Z,23.40
2019-06-01T09:12:06.603Z,23.50
2019-06-01T09:14:35.523Z,23.70
2019-06-01T09:17:03.644Z,23.80
2019-06-01T09:19:31.616Z,24.00
2019-06-01T09:21:59.549Z,24.10
2019-06-01T09:24:27.700Z,24.30
2019-06-01T09:26:55.518Z,24.40
2019-06-01T09:29:23.391Z,24.50
2019-06-01T09:31:51.064Z,24.70
2019-06-01T09:34:18.875Z,25.00
2019-06-01T09:36:46.686Z,25.20
2019-06-01T09:39:14.427Z,25.40
2019-06-01T09:41:42.325Z,25.40
2019-06-01T09:44:10.018Z,25.70
2019-06-01T09:46:37.825Z,25.80
2019-06-01T09:49:05.688Z,25.90
2019-06-01T09:51:33.568Z,26.00
2019-06-01T09:54:01.323Z,26.00
2019-06-01T09:56:31.720Z,26.00
2019-06-01T09:58:58.867Z,26.10
2019-06-01T10:01:28.004Z,26.30
2019-06-01T10:03:55.883Z,26.30
2019-06-01T10:06:23.792Z,26.30
2019-06-01T10:08:51.512Z,26.20
2019-06-01T10:11:19.534Z,26.10
2019-06-01T10:13:47.355Z,26.20
2019-06-01T10:16:15.244Z,26.20
2019-06-01T10:18:43.185Z,26.30
2019-06-01T10:21:11.072Z,26.30
2019-06-01T10:23:38.831Z,26.50
2019-06-01T10:26:06.553Z,26.40
2019-06-01T10:28:35.732Z,26.40
2019-06-01T10:31:03.698Z,26.40
2019-06-01T10:33:32.599Z,26.40
2019-06-01T10:36:18.610Z,26.40
2019-06-01T10:38:31.157Z,26.30
2019-06-01T10:40:58.974Z,26.30
2019-06-01T10:43:26.723Z,26.20
2019-06-01T10:45:54.430Z,26.30
2019-06-01T10:48:22.327Z,26.20
2019-06-01T10:50:50.086Z,26.30
2019-06-01T10:53:17.872Z,26.40
2019-06-01T10:55:45.755Z,26.40
2019-06-01T10:58:13.648Z,26.50
2019-06-01T11:00:48.706Z,26.70
2019-06-01T11:03:10.966Z,26.70
2019-06-01T11:05:38.853Z,26.70
2019-06-01T11:08:06.643Z,26.60
2019-06-01T11:10:34.827Z,26.70
2019-06-01T11:13:02.983Z,26.70
2019-06-01T11:15:30.715Z,26.90
2019-06-01T11:17:58.569Z,27.10
2019-06-01T11:20:26.249Z,27.30
2019-06-01T11:22:54.034Z,27.30
2019-06-01T11:25:24.660Z,27.50
2019-06-01T11:27:52.526Z,27.50
2019-06-01T11:30:20.333Z,27.60
2019-06-01T11:32:49.756Z,27.90
2019-06-01T11:35:17.552Z,28.20
2019-06-01T11:37:45.463Z,28.30
2019-06-01T11:40:13.267Z,28.50
2019-06-01T11:42:43.114Z,28.60
2019-06-01T11:45:11.036Z,28.50
2019-06-01T11:47:39.126Z,28.60
2019-06-01T11:50:08.363Z,28.80
2019-06-01T11:52:37.064Z,28.90
2019-06-01T11:55:06.052Z,28.80
2019-06-01T11:57:35.275Z,28.90
2019-06-01T12:00:04.662Z,28.90
2019-06-01T12:02:35.408Z,29.10
2019-06-01T12:07:33.550Z,29.10
2019-06-01T12:10:01.339Z,29.30
2019-06-01T12:12:30.655Z,29.30
2019-06-01T12:14:58.363Z,29.50
2019-06-01T12:17:25.993Z,29.70
2019-06-01T12:19:53.828Z,29.80
2019-06-01T12:22:21.626Z,30.00
2019-06-01T12:24:49.541Z,30.10
2019-06-01T12:27:17.361Z,30.20
2019-06-01T12:29:45.820Z,30.20
2019-06-01T12:32:13.802Z,30.20
2019-06-01T12:34:41.969Z,30.30
2019-06-01T12:37:09.842Z,30.40
2019-06-01T12:39:38.304Z,30.50
2019-06-01T12:42:06.265Z,30.60
2019-06-01T12:44:34.128Z,30.40
2019-06-01T12:47:01.932Z,30.50
2019-06-01T12:49:30.025Z,30.80
2019-06-01T12:51:57.837Z,31.00
2019-06-01T12:54:25.683Z,31.00
2019-06-01T12:56:53.756Z,31.10
2019-06-01T12:59:21.439Z,31.10
2019-06-01T13:01:49.340Z,31.00
2019-06-01T13:04:17.151Z,30.90
2019-06-01T13:06:48.382Z,31.10
2019-06-01T13:09:14.637Z,31.10
2019-06-01T13:11:43.248Z,31.30
2019-06-01T13:14:11.151Z,31.30
2019-06-01T13:16:38.990Z,31.30
2019-06-01T13:19:06.752Z,31.50
2019-06-01T13:21:34.518Z,31.50
2019-06-01T13:24:02.416Z,31.30
2019-06-01T13:26:30.286Z,31.00
2019-06-01T13:28:58.013Z,30.90
2019-06-01T13:31:25.879Z,31.10
2019-06-01T13:33:53.780Z,31.20
2019-06-01T13:36:21.548Z,31.30
2019-06-01T13:38:50.806Z,31.20
2019-06-01T13:41:18.574Z,31.30
2019-06-01T13:43:47.242Z,31.40
2019-06-01T13:46:15.191Z,31.50
2019-06-01T13:48:43.583Z,31.30
2019-06-01T13:51:11.525Z,31.60
2019-06-01T13:53:39.332Z,31.60
2019-06-01T13:56:07.119Z,31.60
2019-06-01T13:58:34.938Z,31.60
2019-06-01T14:01:02.659Z,31.60
2019-06-01T14:03:30.519Z,31.40
2019-06-01T14:06:00.950Z,31.40
2019-06-01T14:08:29.345Z,31.50
2019-06-01T14:10:57.345Z,31.80
2019-06-01T14:13:25.146Z,31.80
2019-06-01T14:15:53.593Z,31.90
2019-06-01T14:18:21.658Z,32.00
2019-06-01T14:20:49.668Z,32.20
2019-06-01T14:23:17.712Z,32.20
2019-06-01T14:25:45.926Z,32.40
2019-06-01T14:28:13.823Z,32.50
2019-06-01T14:30:41.531Z,32.40
2019-06-01T14:33:09.310Z,32.40
2019-06-01T14:35:37.103Z,32.50
2019-06-01T14:38:04.796Z,32.40
2019-06-01T14:40:32.677Z,32.40
2019-06-01T14:43:00.381Z,32.40
2019-06-01T14:45:28.438Z,32.40
2019-06-01T14:47:56.114Z,32.40
2019-06-01T14:50:23.915Z,32.20
2019-06-01T14:52:51.650Z,32.50
2019-06-01T14:55:19.388Z,32.50
2019-06-01T14:57:50.059Z,32.50
2019-06-01T15:00:18.536Z,32.60
2019-06-01T15:02:48.110Z,32.70
2019-06-01T15:05:16.163Z,32.60
2019-06-01T15:07:44.067Z,32.30
2019-06-01T15:10:14.439Z,32.40
2019-06-01T15:12:42.293Z,32.50
2019-06-01T15:15:10.330Z,32.60
2019-06-01T15:17:38.934Z,32.50
2019-06-01T15:20:06.819Z,32.40
2019-06-01T15:22:35.026Z,32.30
2019-06-01T15:25:03.735Z,32.50
2019-06-01T15:27:32.511Z,32.50
2019-06-01T15:30:00.357Z,32.40
2019-06-01T15:32:29.442Z,32.40
2019-06-01T15:34:57.224Z,32.40
2019-06-01T15:37:24.928Z,32.60
2019-06-01T15:39:52.922Z,32.60
2019-06-01T15:42:20.618Z,32.70
2019-06-01T15:44:48.380Z,32.80
2019-06-01T15:47:16.164Z,33.00
2019-06-01T15:49:43.866Z,33.00
2019-06-01T15:52:11.821Z,32.80
2019-06-01T15:54:39.572Z,32.70
2019-06-01T15:57:07.392Z,32.60
2019-06-01T15:59:35.162Z,32.40
2019-06-01T16:02:03.395Z,32.30
2019-06-01T16:04:31.442Z,32.40
2019-06-01T16:06:59.343Z,32.30
2019-06-01T16:09:41.530Z,31.90
2019-06-01T16:11:57.486Z,32.00
2019-06-01T16:14:25.493Z,31.90
2019-06-01T16:16:56.194Z,32.00
2019-06-01T16:19:23.984Z,32.20
2019-06-01T16:21:51.781Z,32.30
2019-06-01T16:24:19.538Z,32.40
2019-06-01T16:26:47.541Z,32.10
2019-06-01T16:29:15.278Z,32.10
2019-06-01T16:39:08.092Z,31.50
2019-06-01T16:41:36.363Z,31.50
2019-06-01T16:44:05.772Z,31.70
2019-06-01T16:46:33.713Z,31.70
2019-06-01T16:49:01.631Z,31.70
2019-06-01T16:51:56.569Z,31.80
2019-06-01T16:54:25.722Z,31.70
2019-06-01T16:56:53.489Z,31.80
2019-06-01T16:59:21.486Z,31.90
2019-06-01T17:01:49.289Z,31.80
2019-06-01T17:04:17.858Z,31.80
2019-06-01T17:06:46.343Z,31.80
2019-06-01T17:09:14.633Z,31.90
2019-06-01T17:11:42.590Z,31.80
2019-06-01T17:14:10.569Z,31.50
2019-06-01T17:16:38.463Z,31.40
2019-06-01T17:19:07.251Z,31.20
2019-06-01T17:21:34.980Z,31.20
2019-06-01T17:24:03.812Z,31.00
2019-06-01T17:26:31.756Z,30.70
2019-06-01T17:29:00.021Z,30.60
2019-06-01T17:31:28.305Z,30.40
2019-06-01T17:33:56.058Z,30.40
2019-06-01T17:36:23.758Z,30.40
2019-06-01T17:38:51.758Z,30.30
2019-06-01T17:41:19.467Z,30.00
2019-06-01T17:43:47.259Z,29.90
2019-06-01T17:46:14.974Z,29.90
2019-06-01T17:48:43.142Z,29.80
2019-06-01T17:51:10.810Z,29.80
2019-06-01T17:53:38.696Z,29.90
2019-06-01T17:56:06.462Z,29.90
2019-06-01T17:58:34.376Z,29.80
2019-06-01T18:01:04.082Z,29.40
2019-06-01T18:03:31.923Z,29.20
2019-06-01T18:05:59.782Z,29.30
2019-06-01T18:08:27.638Z,29.30
2019-06-01T18:10:55.436Z,29.30
2019-06-01T18:13:23.291Z,29.30
2019-06-01T18:15:51.306Z,29.30
2019-06-01T18:18:19.088Z,29.20
2019-06-01T18:20:46.931Z,29.20
2019-06-01T18:23:14.753Z,29.00
2019-06-01T18:25:42.650Z,28.90
2019-06-01T18:28:16.144Z,28.90
2019-06-01T18:30:40.141Z,28.70
2019-06-01T18:33:09.019Z,28.60
2019-06-01T18:35:37.072Z,28.50
2019-06-01T18:38:05.703Z,28.40
2019-06-01T18:40:33.913Z,28.20
2019-06-01T18:43:06.054Z,28.10
2019-06-01T18:45:35.958Z,27.80
2019-06-01T18:48:05.957Z,27.70
2019-06-01T18:50:34.699Z,27.70
2019-06-01T18:53:03.880Z,27.70
2019-06-01T18:55:35.266Z,27.50
2019-06-01T18:58:01.776Z,27.50
2019-06-01T19:00:30.216Z,27.30
2019-06-01T19:02:58.191Z,27.20
2019-06-01T19:05:26.068Z,27.00
2019-06-01T19:07:53.943Z,26.80
2019-06-01T19:10:22.086Z,26.60
2019-06-01T19:12:50.016Z,26.50
2019-06-01T19:15:27.835Z,26.40
2019-06-01T19:17:47.867Z,26.20
2019-06-01T19:20:17.038Z,26.10
2019-06-01T19:22:44.988Z,26.00
2019-06-01T19:25:14.892Z,25.90
2019-06-01T19:27:43.496Z,25.80
2019-06-01T19:30:12.841Z,25.80
2019-06-01T19:32:42.659Z,25.70
2019-06-01T19:35:11.538Z,25.60
2019-06-01T19:37:40.129Z,25.50
2019-06-01T19:40:09.386Z,25.40
2019-06-01T19:42:37.730Z,25.30
2019-06-01T19:45:05.678Z,25.20
2019-06-01T19:47:34.307Z,25.20
2019-06-01T19:50:02.073Z,25.10
2019-06-01T19:52:31.578Z,25.10
2019-06-01T19:54:59.325Z,25.00
2019-06-01T19:57:27.216Z,25.00
2019-06-01T19:59:57.813Z,25.10
2019-06-01T20:02:33.706Z,25.30
2019-06-01T20:04:55.333Z,25.40
2019-06-01T20:07:23.175Z,25.40
2019-06-01T20:09:51.099Z,25.40
2019-06-01T20:12:20.467Z,25.30
2019-06-01T20:14:48.497Z,25.30
2019-06-01T20:17:17.682Z,25.20
2019-06-01T20:19:45.882Z,25.10
2019-06-01T20:22:14.698Z,25.00
2019-06-01T20:24:42.926Z,25.00
2019-06-01T20:27:11.316Z,25.00
2019-06-01T20:29:39.188Z,25.00
2019-06-01T20:32:06.962Z,25.00
2019-06-01T20:34:34.747Z,25.00
2019-06-01T20:37:02.493Z,25.00
2019-06-01T20:39:30.572Z,24.90
2019-06-01T20:41:58.254Z,24.70
2019-06-01T20:44:26.052Z,24.70
2019-06-01T20:46:54.626Z,24.70
2019-06-01T20:49:22.728Z,24.60
2019-06-01T20:51:50.682Z,24.60
2019-06-01T20:54:19.089Z,24.60
2019-06-01T20:56:47.099Z,24.60
2019-06-01T20:59:17.344Z,24.50
2019-06-01T21:01:44.546Z,24.30
2019-06-01T21:04:13.974Z,24.30
2019-06-01T21:07:00.186Z,24.30
2019-06-01T21:09:28.317Z,24.20
2019-06-01T21:11:56.067Z,24.20
2019-06-01T21:14:23.879Z,24.10
2019-06-01T21:16:51.762Z,24.10
2019-06-01T21:19:20.418Z,23.90
2019-06-01T21:21:48.504Z,23.80
2019-06-01T21:24:16.859Z,23.80
2019-06-01T21:26:44.966Z,23.70
2019-06-01T21:29:12.758Z,23.70
2019-06-01T21:32:02.001Z,23.60
2019-06-01T21:34:29.930Z,23.60
2019-06-01T21:36:57.767Z,23.50
2019-06-01T21:39:25.593Z,23.50
2019-06-01T21:41:53.377Z,23.40
2019-06-01T21:44:21.635Z,23.30
2019-06-01T21:46:49.638Z,23.30
2019-06-01T21:49:17.719Z,23.20
2019-06-01T21:51:45.694Z,23.10
2019-06-01T21:54:13.409Z,23.00
2019-06-01T21:56:41.311Z,23.00
2019-06-01T21:59:09.423Z,23.00
2019-06-01T22:01:37.178Z,22.90
2019-06-01T22:04:05.051Z,22.90
2019-06-01T22:09:06.809Z,22.80
2019-06-01T22:11:34.528Z,22.80
2019-06-01T22:14:02.319Z,22.70
2019-06-01T22:16:30.349Z,22.60
2019-06-01T22:18:58.531Z,22.50
2019-06-01T22:21:27.837Z,22.50
2019-06-01T22:24:05.113Z,22.40
2019-06-01T22:26:32.795Z,22.30
2019-06-01T22:29:00.609Z,22.30
2019-06-01T22:31:28.727Z,22.20
2019-06-01T22:33:56.626Z,22.20
2019-06-01T22:36:25.161Z,22.10
2019-06-01T22:38:53.138Z,22.10
2019-06-01T22:41:21.877Z,22.00
